Time;durP1;ratioP1;P1;durP2;ratioP2;P2;SDS_P1;SDS_P2;PMS_P1;PMS_P2;Temp;Humidity;BMP_temperature;BMP_pressure;BME280_temperature;BME280_humidity;BME280_pressure;Samples;Min_cycle;Max_cycle;Signal;HPM_P1;HPM_P2
2023/04/21 00:00:43;;;;;;;25.20;22.50;;;;;;;7.11;100.00;101443.38;5020326;28;20064;-52
2023/04/21 00:03:08;;;;;;;25.65;22.65;;;;;;;7.09;100.00;101442.59;5031577;28;20071;-52
2023/04/21 00:05:34;;;;;;;27.60;24.35;;;;;;;7.08;100.00;101443.53;5027688;28;20033;-50
2023/04/21 00:07:59;;;;;;;26.27;23.48;;;;;;;7.07;100.00;101439.19;5034956;28;20029;-54
2023/04/21 00:10:24;;;;;;;27.25;24.45;;;;;;;7.06;100.00;101437.50;5032650;28;20086;-51
2023/04/21 00:12:50;;;;;;;26.13;23.42;;;;;;;7.04;100.00;101434.94;5036373;28;20053;-51
2023/04/21 00:15:15;;;;;;;26.67;23.98;;;;;;;7.02;100.00;101428.84;5039886;28;20124;-54
2023/04/21 00:17:40;;;;;;;27.38;24.65;;;;;;;7.00;100.00;101420.16;5046682;28;20028;-54
2023/04/21 00:20:08;;;;;;;28.27;25.38;;;;;;;6.99;100.00;101423.72;5042960;28;20522;-50
2023/04/21 00:22:33;;;;;;;26.95;24.25;;;;;;;6.98;100.00;101415.91;5043610;28;20048;-50
2023/04/21 00:24:58;;;;;;;28.23;25.20;;;;;;;6.97;100.00;101414.19;5039428;28;20030;-52
2023/04/21 00:27:24;;;;;;;27.75;24.95;;;;;;;6.96;100.00;101409.81;5038687;28;20025;-50
2023/04/21 00:29:49;;;;;;;29.42;26.27;;;;;;;6.95;100.00;101410.78;5037495;28;20041;-51
2023/04/21 00:32:15;;;;;;;29.10;26.08;;;;;;;6.93;100.00;101407.34;5042491;28;20021;-50
2023/04/21 00:34:40;;;;;;;29.13;25.73;;;;;;;6.92;100.00;101403.00;5038750;28;21015;-51
2023/04/21 00:37:05;;;;;;;28.88;25.88;;;;;;;6.91;100.00;101402.19;5052141;28;20071;-50
2023/04/21 00:39:31;;;;;;;30.52;27.15;;;;;;;6.89;100.00;101411.09;5047918;28;20075;-49
2023/04/21 00:41:56;;;;;;;28.70;25.73;;;;;;;6.90;100.00;101408.38;5040953;28;20220;-52
2023/04/21 00:44:21;;;;;;;29.23;26.20;;;;;;;6.89;100.00;101393.44;5026608;28;20394;-51
2023/04/21 00:46:47;;;;;;;28.88;25.55;;;;;;;6.89;100.00;101390.81;5034744;28;20479;-52
2023/04/21 00:49:13;;;;;;;30.63;27.27;;;;;;;6.91;100.00;101398.66;5038260;28;20021;-53
2023/04/21 00:51:38;;;;;;;29.77;26.58;;;;;;;6.90;100.00;101408.38;5047961;28;20036;-54
2023/04/21 00:54:06;;;;;;;31.05;27.75;;;;;;;6.92;100.00;101405.66;5042539;28;20068;-50
2023/04/21 00:56:33;;;;;;;30.90;27.55;;;;;;;6.88;100.00;101399.69;5042618;28;20487;-51
2023/04/21 00:59:00;;;;;;;29.88;26.30;;;;;;;6.88;100.00;101399.69;5035358;28;20025;-50
2023/04/21 01:01:28;;;;;;;30.42;26.80;;;;;;;6.89;100.00;101396.09;5043373;28;20039;-49
2023/04/21 01:03:56;;;;;;;30.08;26.90;;;;;;;6.90;100.00;101399.59;5039146;28;20025;-53
2023/04/21 01:06:22;;;;;;;32.45;27.52;;;;;;;6.90;100.00;101402.25;5019880;28;20030;-52
2023/04/21 01:08:47;;;;;;;29.25;25.98;;;;;;;6.90;100.00;101402.25;5012489;28;20140;-53
2023/04/21 01:11:13;;;;;;;28.73;25.73;;;;;;;6.89;100.00;101392.59;5017620;28;20042;-50
2023/04/21 01:13:39;;;;;;;29.77;26.60;;;;;;;6.89;100.00;101384.69;5033706;28;20140;-52
2023/04/21 01:16:06;;;;;;;28.52;25.55;;;;;;;6.89;100.00;101392.59;5032285;28;20108;-50
2023/04/21 01:18:32;;;;;;;31.35;28.05;;;;;;;6.87;100.00;101384.75;5039006;28;20556;-53
2023/04/21 01:20:58;;;;;;;29.25;26.23;;;;;;;6.88;100.00;101381.22;5049260;28;20100;-50
2023/04/21 01:23:23;;;;;;;29.40;26.23;;;;;;;6.89;100.00;101374.13;5043625;28;20029;-50
2023/04/21 01:25:52;;;;;;;31.40;28.02;;;;;;;6.89;100.00;101367.03;5025365;28;20099;-52
2023/04/21 01:28:22;;;;;;;29.70;26.70;;;;;;;6.90;100.00;101370.56;5037010;28;20060;-50
2023/04/21 01:30:47;;;;;;;29.05;25.95;;;;;;;6.91;100.00;101366.97;5036593;28;20319;-50
2023/04/21 01:33:13;;;;;;;30.27;26.27;;;;;;;6.93;100.00;101358.03;5040850;28;20106;-50
2023/04/21 01:35:39;;;;;;;28.52;25.20;;;;;;;6.93;100.00;101360.69;5043776;28;20041;-49
2023/04/21 01:38:04;;;;;;;30.90;27.38;;;;;;;6.92;100.00;101364.25;5044662;28;20112;-49
2023/04/21 01:40:30;;;;;;;28.92;25.83;;;;;;;6.92;100.00;101350.19;5041753;28;20424;-50
2023/04/21 01:42:55;;;;;;;29.35;26.20;;;;;;;6.90;100.00;101355.56;5018826;28;20034;-50
2023/04/21 01:45:20;;;;;;;30.30;27.05;;;;;;;6.89;100.00;101358.28;5023413;28;20028;-52
2023/04/21 01:47:46;;;;;;;30.75;27.48;;;;;;;6.88;100.00;101360.09;5037439;28;20017;-52
2023/04/21 01:50:11;;;;;;;29.83;26.58;;;;;;;6.85;100.00;101353.16;5043690;28;20032;-49
2023/04/21 01:52:36;;;;;;;28.42;25.33;;;;;;;6.87;100.00;101333.75;5039763;28;20401;-50
2023/04/21 01:55:03;;;;;;;31.55;25.95;;;;;;;6.85;100.00;101332.03;5038417;28;20036;-52
2023/04/21 01:57:28;;;;;;;29.60;25.23;;;;;;;6.84;100.00;101324.19;5039317;28;20091;-50
2023/04/21 01:59:54;;;;;;;27.80;24.80;;;;;;;6.83;100.00;101326.00;5042803;28;20477;-52
2023/04/21 02:02:19;;;;;;;28.67;25.02;;;;;;;6.82;100.00;101319.00;5039946;28;20049;-51
2023/04/21 02:04:44;;;;;;;28.05;24.35;;;;;;;6.82;100.00;101313.72;5039855;28;20033;-53
2023/04/21 02:07:09;;;;;;;27.40;24.35;;;;;;;6.81;100.00;101305.88;5039166;28;20471;-50
2023/04/21 02:09:35;;;;;;;29.75;25.38;;;;;;;6.81;100.00;101304.09;5042123;28;20047;-50
2023/04/21 02:12:01;;;;;;;27.20;24.15;;;;;;;6.79;100.00;101311.22;5039750;28;20503;-50
2023/04/21 02:14:26;;;;;;;29.30;24.50;;;;;;;6.76;100.00;101311.41;5037716;28;20044;-50
2023/04/21 02:16:51;;;;;;;28.33;23.92;;;;;;;6.77;100.00;101317.53;5022088;28;20099;-53
2023/04/21 02:19:17;;;;;;;27.45;24.02;;;;;;;6.76;100.00;101319.34;5050680;28;20029;-52
2023/04/21 02:21:42;;;;;;;26.83;23.40;;;;;;;6.76;100.00;101310.53;5035001;28;20037;-51
2023/04/21 02:24:07;;;;;;;29.48;24.70;;;;;;;6.75;100.00;101309.69;5036101;28;20031;-52
2023/04/21 02:26:32;;;;;;;27.05;23.73;;;;;;;6.75;100.00;101308.84;5042498;28;20036;-51
2023/04/21 02:28:58;;;;;;;28.02;24.05;;;;;;;6.74;100.00;101305.34;5046467;28;20027;-50
2023/04/21 02:31:23;;;;;;;27.52;24.05;;;;;;;6.75;100.00;101304.41;5025472;28;20075;-50
2023/04/21 02:33:48;;;;;;;29.08;23.65;;;;;;;6.75;100.00;101303.56;5034606;28;20029;-52
2023/04/21 02:36:14;;;;;;;27.92;24.33;;;;;;;6.75;100.00;101299.16;5036495;28;20032;-52
2023/04/21 02:38:39;;;;;;;30.77;24.85;;;;;;;6.75;100.00;101296.50;5032149;28;20429;-50
2023/04/21 02:41:04;;;;;;;31.08;26.33;;;;;;;6.74;100.00;101289.50;5038333;28;20022;-50
2023/04/21 02:43:30;;;;;;;29.45;25.42;;;;;;;6.73;100.00;101295.75;5045424;28;20017;-50
2023/04/21 02:45:55;;;;;;;29.00;25.52;;;;;;;6.72;100.00;101295.81;5029148;28;20391;-50
2023/04/21 02:48:23;;;;;;;30.67;26.65;;;;;;;6.71;100.00;101297.63;5040188;28;20390;-51
2023/04/21 02:50:51;;;;;;;33.38;26.38;;;;;;;6.71;100.00;101305.53;5036435;28;20087;-51
2023/04/21 02:53:17;;;;;;;30.80;26.00;;;;;;;6.72;100.00;101295.81;5041629;28;20457;-50
2023/04/21 02:55:42;;;;;;;33.47;27.27;;;;;;;6.71;100.00;101302.03;5045225;28;20257;-50
2023/04/21 02:58:08;;;;;;;32.65;26.95;;;;;;;6.70;100.00;101300.34;5048198;28;20028;-49
2023/04/21 03:00:33;;;;;;;33.30;27.67;;;;;;;6.70;100.00;101292.41;5045013;28;20025;-54
2023/04/21 03:02:58;;;;;;;34.15;28.55;;;;;;;6.70;100.00;101287.97;5025927;28;20029;-52
2023/04/21 03:05:24;;;;;;;33.65;27.25;;;;;;;6.70;100.00;101292.41;5032350;28;20056;-50
2023/04/21 03:07:49;;;;;;;34.72;28.20;;;;;;;6.69;100.00;101288.06;5034310;28;20037;-48
2023/04/21 03:10:15;;;;;;;34.33;28.55;;;;;;;6.67;100.00;101290.78;5038159;28;20420;-48
2023/04/21 03:12:40;;;;;;;35.72;27.80;;;;;;;6.67;100.00;101283.69;5046424;28;20155;-53
2023/04/21 03:15:06;;;;;;;32.47;28.25;;;;;;;6.66;100.00;101287.28;5040967;28;20044;-53
2023/04/21 03:17:31;;;;;;;34.85;28.13;;;;;;;6.64;100.00;101286.53;5029348;28;20474;-52
2023/04/21 03:19:56;;;;;;;35.92;28.15;;;;;;;6.63;100.00;101289.25;5043909;28;20076;-52
2023/04/21 03:22:21;;;;;;;36.70;29.48;;;;;;;6.61;100.00;101289.31;5041225;28;20029;-50
2023/04/21 03:24:47;;;;;;;31.98;27.20;;;;;;;6.61;100.00;101291.97;5031109;28;20090;-52
2023/04/21 03:27:12;;;;;;;34.13;27.98;;;;;;;6.59;100.00;101290.31;5028921;28;20062;-50
2023/04/21 03:29:37;;;;;;;37.55;30.20;;;;;;;6.59;100.00;101291.16;5031693;28;20027;-51
2023/04/21 03:32:02;;;;;;;37.33;28.83;;;;;;;6.57;100.00;101289.56;5033815;28;20021;-52
2023/04/21 03:34:28;;;;;;;37.25;29.85;;;;;;;6.54;100.00;101279.16;5028823;28;20368;-51
2023/04/21 03:36:54;;;;;;;37.17;30.98;;;;;;;6.51;100.00;101276.69;5031848;28;20032;-53
2023/04/21 03:39:20;;;;;;;34.78;30.10;;;;;;;6.50;100.00;101280.28;5029368;28;20049;-49
2023/04/21 03:41:45;;;;;;;37.88;30.95;;;;;;;6.47;100.00;101282.13;5048655;28;20470;-50
2023/04/21 03:44:10;;;;;;;39.28;32.28;;;;;;;6.48;100.00;101286.47;5045395;28;20033;-50
2023/04/21 03:46:35;;;;;;;37.72;30.20;;;;;;;6.48;100.00;101286.47;5048674;28;20020;-52
2023/04/21 03:49:01;;;;;;;41.90;32.22;;;;;;;6.46;100.00;101285.72;5027385;28;20018;-50
2023/04/21 03:51:27;;;;;;;37.83;31.30;;;;;;;6.46;100.00;101285.72;5045860;28;20055;-50
2023/04/21 03:53:52;;;;;;;40.67;32.80;;;;;;;6.47;100.00;101290.03;5040125;28;20037;-50
2023/04/21 03:56:17;;;;;;;41.70;32.90;;;;;;;6.47;100.00;101283.91;5045517;28;20052;-52
2023/04/21 03:58:42;;;;;;;41.85;33.65;;;;;;;6.49;100.00;101287.31;5039750;28;20049;-51
2023/04/21 04:01:08;;;;;;;41.78;33.35;;;;;;;6.49;100.00;101287.31;5045068;28;20021;-50
2023/04/21 04:03:33;;;;;;;41.88;35.13;;;;;;;6.51;100.00;101289.88;5044224;28;20096;-53
2023/04/21 04:05:58;;;;;;;45.58;34.63;;;;;;;6.51;100.00;101279.31;5032839;28;20025;-50
2023/04/21 04:08:24;;;;;;;46.97;36.97;;;;;;;6.51;100.00;101285.44;5032323;28;20026;-50
2023/04/21 04:10:49;;;;;;;45.00;35.25;;;;;;;6.52;100.00;101281.03;5041511;28;20025;-50
2023/04/21 04:13:15;;;;;;;47.67;35.85;;;;;;;6.52;100.00;101284.53;5035408;28;20454;-52
2023/04/21 04:15:40;;;;;;;44.25;36.13;;;;;;;6.53;100.00;101275.69;5028407;28;20117;-49
2023/04/21 04:18:05;;;;;;;47.03;36.70;;;;;;;6.56;100.00;101287.84;5029481;28;20040;-49
2023/04/21 04:20:31;;;;;;;47.05;36.58;;;;;;;6.57;100.00;101276.38;5039746;28;20467;-50
2023/04/21 04:22:56;;;;;;;44.15;36.70;;;;;;;6.59;100.00;101272.69;5024130;28;20446;-49
2023/04/21 04:25:21;;;;;;;48.38;37.63;;;;;;;6.61;100.00;101275.25;5038033;28;20367;-50
2023/04/21 04:27:49;;;;;;;47.67;38.33;;;;;;;6.63;100.00;101273.41;5028302;28;20463;-50
2023/04/21 04:30:14;;;;;;;49.17;37.90;;;;;;;6.63;100.00;101270.78;5030743;28;20022;-49
2023/04/21 04:32:40;;;;;;;46.83;36.67;;;;;;;6.65;100.00;101276.81;5030174;28;20030;-49
2023/04/21 04:35:06;;;;;;;48.17;38.35;;;;;;;6.65;100.00;101274.19;5024720;28;20033;-51
2023/04/21 04:37:33;;;;;;;49.20;37.67;;;;;;;6.64;100.00;101275.97;5033935;28;20053;-50
2023/04/21 04:39:59;;;;;;;48.78;38.42;;;;;;;6.65;100.00;101276.81;5034122;28;20075;-49
2023/04/21 04:42:24;;;;;;;52.13;39.00;;;;;;;6.65;100.00;101275.03;5042966;28;20033;-51
2023/04/21 04:44:52;;;;;;;48.70;38.58;;;;;;;6.65;100.00;101276.81;5028917;28;20064;-49
2023/04/21 04:47:18;;;;;;;49.50;37.53;;;;;;;6.69;100.00;101280.13;5034239;28;20033;-50
2023/04/21 04:49:43;;;;;;;49.05;39.83;;;;;;;6.69;100.00;101285.41;5025856;28;20078;-50
2023/04/21 04:52:08;;;;;;;53.03;40.28;;;;;;;6.68;100.00;101292.50;5039573;28;20040;-49
2023/04/21 04:54:33;;;;;;;51.40;38.53;;;;;;;6.69;100.00;101283.63;5037662;28;20424;-51
2023/04/21 04:56:59;;;;;;;51.15;39.75;;;;;;;6.71;100.00;101287.06;5045768;28;20601;-49
2023/04/21 04:59:25;;;;;;;53.92;40.42;;;;;;;6.71;100.00;101284.41;5048956;28;20033;-51
2023/04/21 05:01:50;;;;;;;53.95;42.17;;;;;;;6.72;100.00;101280.81;5036229;28;20120;-52
2023/04/21 05:04:16;;;;;;;52.42;41.80;;;;;;;6.73;100.00;101282.53;5046485;28;20502;-50
2023/04/21 05:06:41;;;;;;;59.05;41.38;;;;;;;6.74;100.00;101289.50;5042317;28;20482;-49
2023/04/21 05:09:06;;;;;;;56.80;41.88;;;;;;;6.75;100.00;101287.75;5034562;28;20405;-49
2023/04/21 05:11:32;;;;;;;59.60;42.45;;;;;;;6.75;100.00;101283.31;5042233;28;20117;-53
2023/04/21 05:13:57;;;;;;;54.50;40.67;;;;;;;6.77;100.00;101281.44;5046093;28;20013;-53
2023/04/21 05:16:22;;;;;;;58.05;43.42;;;;;;;6.79;100.00;101286.63;5022127;28;20033;-53
2023/04/21 05:18:52;;;;;;;61.83;42.90;;;;;;;6.79;100.00;101283.97;5025229;28;20494;-52
2023/04/21 05:21:26;;;;;;;59.33;44.35;;;;;;;6.82;100.00;101289.94;5035475;28;20052;-50
2023/04/21 05:23:52;;;;;;;60.78;44.35;;;;;;;6.82;100.00;101295.22;5033517;28;20033;-50
2023/04/21 05:26:17;;;;;;;61.78;44.95;;;;;;;6.86;100.00;101295.91;5041831;28;20406;-49
2023/04/21 05:28:42;;;;;;;63.45;45.20;;;;;;;6.90;100.00;101300.13;5048438;28;20029;-51
2023/04/21 05:31:08;;;;;;;67.70;48.85;;;;;;;6.92;100.00;101303.50;5047484;28;20037;-51
2023/04/21 05:33:33;;;;;;;62.78;46.88;;;;;;;6.95;100.00;101305.16;5026745;28;20099;-52
2023/04/21 05:35:58;;;;;;;61.53;45.10;;;;;;;6.96;100.00;101314.75;5034773;28;20036;-53
2023/04/21 05:38:26;;;;;;;62.38;45.67;;;;;;;6.99;100.00;101312.81;5036371;28;20479;-51
2023/04/21 05:40:53;;;;;;;66.50;46.90;;;;;;;7.03;100.00;101316.16;5031312;28;20084;-50
2023/04/21 05:43:18;;;;;;;61.08;46.55;;;;;;;7.04;100.00;101321.34;5046622;28;20116;-52
2023/04/21 05:45:43;;;;;;;61.05;45.92;;;;;;;7.05;100.00;101316.91;5037658;28;20105;-54
2023/04/21 05:48:08;;;;;;;62.47;46.55;;;;;;;7.06;100.00;101307.19;5046035;28;20037;-50
2023/04/21 05:50:34;;;;;;;62.28;46.47;;;;;;;7.06;100.00;101313.34;5043094;28;20028;-50
2023/04/21 05:53:00;;;;;;;65.57;47.83;;;;;;;7.09;100.00;101314.97;5036503;28;20021;-53
2023/04/21 05:55:25;;;;;;;64.25;47.88;;;;;;;7.09;100.00;101320.25;5046598;28;20075;-49
2023/04/21 05:57:51;;;;;;;62.22;47.30;;;;;;;7.09;100.00;101315.81;5042323;28;20029;-51
2023/04/21 06:00:16;;;;;;;58.63;46.35;;;;;;;7.13;100.00;101319.16;5025799;28;20058;-53
2023/04/21 06:02:41;;;;;;;63.10;47.95;;;;;;;7.15;100.00;101315.47;5036691;28;20028;-53
2023/04/21 06:05:07;;;;;;;68.85;47.33;;;;;;;7.17;100.00;101304.81;5031599;28;20112;-51
2023/04/21 06:07:35;;;;;;;63.28;47.13;;;;;;;7.19;100.00;101309.09;5032448;28;20029;-52
2023/04/21 06:10:03;;;;;;;66.53;47.45;;;;;;;7.22;100.00;101303.63;5016161;28;20129;-63
2023/04/21 06:12:28;;;;;;;62.17;46.80;;;;;;;7.23;100.00;101301.84;5028644;28;20052;-63
2023/04/21 06:14:56;;;;;;;61.38;46.15;;;;;;;7.26;100.00;101300.81;5025013;28;20037;-64
2023/04/21 06:17:22;;;;;;;61.67;46.95;;;;;;;7.29;100.00;101303.28;5026438;28;20032;-63
2023/04/21 06:19:51;;;;;;;62.72;46.20;;;;;;;7.34;100.00;101311.81;5027755;28;20053;-63
2023/04/21 06:22:17;;;;;;;;;;;;;;;7.43;100.00;101308.69;5022230;28;20026;-64
2023/04/21 06:24:42;;;;;;;57.88;43.88;;;;;;;7.48;100.00;101311.06;5018704;28;19972;-64
2023/04/21 06:27:13;;;;;;;63.25;45.00;;;;;;;7.53;100.00;101298.44;5031501;28;20037;-64
2023/04/21 06:29:40;;;;;;;62.28;45.70;;;;;;;7.56;100.00;101301.75;5028860;28;20112;-64
2023/04/21 06:32:06;;;;;;;59.70;45.10;;;;;;;7.60;100.00;101303.28;5022046;28;20329;-63
2023/04/21 06:34:31;;;;;;;59.50;44.55;;;;;;;7.63;100.00;101299.63;5025825;28;20471;-64
2023/04/21 06:36:56;;;;;;;61.10;44.67;;;;;;;7.68;100.00;101309.94;5027189;28;20018;-63
2023/04/21 06:39:22;;;;;;;56.22;43.75;;;;;;;7.70;100.00;101314.19;5026835;28;20033;-63
2023/04/21 06:41:47;;;;;;;56.13;43.92;;;;;;;7.77;100.00;101312.03;5029991;28;20049;-63
2023/04/21 06:44:12;;;;;;;57.85;44.55;;;;;;;7.87;100.00;101313.22;5025574;28;20036;-63
2023/04/21 06:46:39;;;;;;;57.20;44.58;;;;;;;7.93;100.00;101310.22;5035787;28;20076;-64
2023/04/21 06:49:05;;;;;;;61.33;44.65;;;;;;;8.00;100.00;101312.50;5037178;28;20025;-64
2023/04/21 06:51:31;;;;;;;57.80;43.63;;;;;;;8.02;100.00;101308.81;5025863;28;20038;-63
2023/04/21 06:53:56;;;;;;;57.80;44.03;;;;;;;8.08;100.00;101307.63;5039222;28;20017;-63
2023/04/21 06:56:21;;;;;;;54.92;43.90;;;;;;;8.12;100.00;101312.63;5028815;28;20430;-63
2023/04/21 06:58:47;;;;;;;52.35;42.53;;;;;;;8.19;100.00;101309.63;5028068;28;20052;-63
2023/04/21 07:01:12;;;;;;;52.08;42.08;;;;;;;8.21;100.00;101308.59;5030613;28;20037;-63
2023/04/21 07:03:37;;;;;;;49.40;41.03;;;;;;;8.27;100.00;101310.88;5034510;28;20090;-64
2023/04/21 07:06:03;;;;;;;50.65;41.00;;;;;;;8.32;100.00;101303.50;5026007;28;20037;-64
2023/04/21 07:08:28;;;;;;;55.05;42.70;;;;;;;8.39;100.00;101305.78;5043809;28;20462;-63
2023/04/21 07:10:53;;;;;;;48.83;39.97;;;;;;;8.47;100.00;101299.13;5046449;28;20556;-63
2023/04/21 07:13:19;;;;;;;48.83;39.90;;;;;;;8.60;100.00;101301.03;5037190;28;20500;-63
2023/04/21 07:15:45;;;;;;;47.72;39.47;;;;;;;8.75;100.00;101307.19;5030208;28;20095;-64
2023/04/21 07:18:10;;;;;;;49.38;41.15;;;;;;;8.91;100.00;101304.44;5028468;28;20057;-63
2023/04/21 07:20:36;;;;;;;49.20;41.50;;;;;;;9.15;100.00;101305.56;5034075;28;20041;-63
2023/04/21 07:23:01;;;;;;;45.30;39.28;;;;;;;9.31;100.00;101315.16;5022710;28;20055;-63
2023/04/21 07:25:26;;;;;;;40.63;34.22;;;;;;;9.46;100.00;101311.56;5028048;28;20046;-63
2023/04/21 07:27:51;;;;;;;42.15;35.42;;;;;;;9.55;100.00;101316.25;5024647;28;20025;-63
2023/04/21 07:30:17;;;;;;;43.88;35.67;;;;;;;9.70;100.00;101306.44;5035980;28;20045;-63
2023/04/21 07:32:42;;;;;;;40.03;34.33;;;;;;;9.88;100.00;101301.75;5037862;28;20033;-63
2023/04/21 07:35:08;;;;;;;37.03;31.75;;;;;;;10.14;100.00;101297.34;5034326;28;20353;-63
2023/04/21 07:37:33;;;;;;;37.50;33.45;;;;;;;10.34;100.00;101298.69;5028721;28;20398;-63
2023/04/21 07:39:58;;;;;;;35.55;31.08;;;;;;;10.50;96.14;101297.63;5034555;28;20029;-61
2023/04/21 07:42:25;;;;;;;35.13;30.40;;;;;;;10.70;96.34;101296.22;5033952;28;20476;-63
2023/04/21 07:44:51;;;;;;;32.88;28.92;;;;;;;10.96;94.97;101296.19;5023314;28;20109;-64
2023/04/21 07:47:17;;;;;;;32.85;28.55;;;;;;;11.19;92.39;101299.88;5016847;28;20030;-63
2023/04/21 07:49:42;;;;;;;29.20;25.50;;;;;;;11.41;90.09;101299.19;5019322;28;20044;-63
2023/04/21 07:52:07;;;;;;;28.73;24.75;;;;;;;11.59;87.69;101294.28;5017576;28;20498;-63
2023/04/21 07:54:33;;;;;;;29.27;26.00;;;;;;;11.73;88.85;101290.63;5025220;28;20037;-64
2023/04/21 07:56:58;;;;;;;26.30;22.70;;;;;;;11.87;85.59;101297.59;5041070;28;20436;-63
2023/04/21 07:59:23;;;;;;;24.75;22.10;;;;;;;11.98;83.89;101303.81;5026557;28;20057;-63
2023/04/21 08:01:50;;;;;;;26.33;23.20;;;;;;;12.11;83.97;101300.25;5023987;28;20045;-63
2023/04/21 08:04:16;;;;;;;26.73;23.35;;;;;;;12.23;84.28;101291.31;5014166;28;20069;-64
2023/04/21 08:06:41;;;;;;;25.25;22.55;;;;;;;12.39;82.46;101289.19;5037792;28;20025;-63
2023/04/21 08:09:06;;;;;;;24.20;21.13;;;;;;;12.48;80.44;101290.28;5033635;28;20037;-64
2023/04/21 08:11:31;;;;;;;25.42;21.63;;;;;;;12.57;78.54;101291.38;5037362;28;20382;-63
2023/04/21 08:13:57;;;;;;;25.30;21.67;;;;;;;12.71;78.46;101293.81;5031673;28;20057;-63
2023/04/21 08:16:22;;;;;;;22.13;19.70;;;;;;;12.88;77.36;101287.16;5037985;28;20033;-63
2023/04/21 08:18:47;;;;;;;22.90;20.45;;;;;;;13.02;75.76;101290.53;5019787;28;20018;-63
2023/04/21 08:21:13;;;;;;;23.83;21.08;;;;;;;13.14;74.62;101282.41;5019867;28;20034;-63
2023/04/21 08:23:39;;;;;;;22.58;20.17;;;;;;;13.37;76.49;101285.03;5039513;28;20071;-63
2023/04/21 08:26:04;;;;;;;23.23;19.90;;;;;;;13.72;76.47;101283.13;5040237;28;20434;-63
2023/04/21 08:28:30;;;;;;;21.75;18.48;;;;;;;13.84;72.22;101290.97;5042969;28;20078;-63
2023/04/21 08:30:55;;;;;;;21.33;18.38;;;;;;;13.80;70.93;101286.84;5031434;28;20507;-63
2023/04/21 08:33:20;;;;;;;20.30;18.13;;;;;;;13.91;71.58;101280.63;5036380;28;20032;-63
2023/04/21 08:35:45;;;;;;;18.40;16.27;;;;;;;14.08;69.87;101281.88;5039238;28;20109;-63
2023/04/21 08:38:11;;;;;;;19.23;16.83;;;;;;;14.23;69.92;101275.22;5035735;28;20111;-64
2023/04/21 08:40:37;;;;;;;18.50;16.13;;;;;;;14.35;67.81;101269.81;5027262;28;20430;-64
2023/04/21 08:43:06;;;;;;;18.50;16.55;;;;;;;14.46;66.02;101274.25;5031272;28;20017;-64
2023/04/21 08:45:33;;;;;;;19.50;16.98;;;;;;;14.51;67.92;101272.00;5025100;28;20041;-64
2023/04/21 08:47:59;;;;;;;16.95;15.07;;;;;;;14.67;65.77;101274.22;5032859;28;20029;-63
2023/04/21 08:50:28;;;;;;;17.60;15.80;;;;;;;14.76;65.99;101273.44;5031685;28;20082;-63
2023/04/21 08:52:55;;;;;;;17.83;15.85;;;;;;;15.00;66.23;101270.41;5032238;28;20026;-68
2023/04/21 08:55:25;;;;;;;18.88;16.45;;;;;;;15.34;67.86;101268.25;5025279;28;20395;-64
2023/04/21 08:57:50;;;;;;;15.82;14.20;;;;;;;15.54;64.56;101271.78;5054644;28;20040;-63
2023/04/21 09:00:16;;;;;;;16.52;14.73;;;;;;;15.65;64.36;101273.47;5035396;28;20030;-63
2023/04/21 09:02:58;;;;;;;16.42;14.63;;;;;;;15.87;65.23;101267.03;5040128;28;20030;-64
2023/04/21 09:05:26;;;;;;;16.48;14.35;;;;;;;16.10;59.85;101264.03;5038621;28;20048;-63
2023/04/21 09:08:06;;;;;;;15.85;14.15;;;;;;;16.20;59.95;101259.50;5044024;28;20040;-64
2023/04/21 09:10:32;;;;;;;16.15;13.32;;;;;;;16.29;58.45;101257.81;5037001;28;20108;-63
2023/04/21 09:12:57;;;;;;;14.10;12.10;;;;;;;16.64;60.24;101250.94;5037681;28;20084;-63
2023/04/21 09:15:22;;;;;;;13.57;12.17;;;;;;;16.88;59.23;101261.16;5031075;28;20079;-63
2023/04/21 09:17:55;;;;;;;15.75;13.20;;;;;;;16.93;58.56;101249.97;5038947;28;20283;-63
2023/04/21 09:20:21;;;;;;;13.00;11.57;;;;;;;17.14;57.36;101245.19;5053934;28;20433;-63
2023/04/21 09:22:48;;;;;;;13.45;12.05;;;;;;;17.15;55.86;101251.41;5054814;28;20095;-63
2023/04/21 09:25:20;;;;;;;12.63;11.30;;;;;;;17.16;56.16;101245.03;5049825;28;20021;-63
2023/04/21 09:27:46;;;;;;;12.85;11.55;;;;;;;17.07;53.99;101240.56;5053327;28;20028;-63
2023/04/21 09:30:12;;;;;;;13.95;11.57;;;;;;;17.06;56.63;101245.09;5048562;28;20029;-63
2023/04/21 09:32:39;;;;;;;13.55;11.93;;;;;;;17.27;56.13;101252.88;5027850;28;20096;-63
2023/04/21 09:35:13;;;;;;;12.38;11.07;;;;;;;17.46;56.65;101246.53;5043126;28;20563;-63
2023/04/21 09:37:42;;;;;;;16.55;12.60;;;;;;;17.63;55.52;101252.06;5038729;28;20033;-63
2023/04/21 09:40:12;;;;;;;14.40;12.88;;;;;;;17.79;56.04;101243.31;5037177;28;20041;-62
2023/04/21 09:42:37;;;;;;;14.35;12.85;;;;;;;17.85;55.58;101245.34;5035420;28;20475;-63
2023/04/21 09:45:03;;;;;;;13.50;12.10;;;;;;;18.05;54.55;101235.28;5047766;28;20032;-63
2023/04/21 09:47:33;;;;;;;12.43;10.70;;;;;;;18.21;51.76;101239.94;5039917;28;20052;-63
2023/04/21 09:49:59;;;;;;;10.05;9.02;;;;;;;18.42;49.75;101250.34;5048318;28;20359;-63
2023/04/21 09:52:27;;;;;;;11.52;10.32;;;;;;;18.41;50.18;101243.28;5035950;28;20034;-63
2023/04/21 09:54:59;;;;;;;11.05;9.88;;;;;;;18.50;50.39;101242.28;5044801;28;20029;-63
2023/04/21 09:57:26;;;;;;;10.70;9.60;;;;;;;18.54;50.02;101230.22;5032866;28;20037;-63
2023/04/21 10:00:05;;;;;;;11.63;9.68;;;;;;;18.49;51.91;101230.69;5045189;28;20401;-63
2023/04/21 10:02:32;;;;;;;10.50;9.40;;;;;;;18.53;50.87;101219.63;5040302;28;20107;-63
2023/04/21 10:04:58;;;;;;;10.52;9.48;;;;;;;18.64;50.31;101225.56;5041663;28;20492;-62
2023/04/21 10:07:23;;;;;;;10.90;9.55;;;;;;;18.63;48.50;101225.72;5041464;28;20120;-62
2023/04/21 10:09:54;;;;;;;9.93;8.93;;;;;;;18.72;49.02;101214.00;5047568;28;20355;-63
2023/04/21 10:12:21;;;;;;;11.27;9.88;;;;;;;18.73;48.57;101212.16;5034551;28;20369;-62
2023/04/21 10:14:54;;;;;;;9.75;8.85;;;;;;;18.85;49.01;101209.03;5040438;28;20319;-62
2023/04/21 10:17:24;;;;;;;10.68;9.55;;;;;;;19.02;49.58;101209.94;5016043;28;20042;-63
2023/04/21 10:19:52;;;;;;;12.00;10.80;;;;;;;19.11;48.20;101212.63;5031036;28;20028;-62
2023/04/21 10:22:30;;;;;;;11.02;9.93;;;;;;;19.15;49.70;101205.91;5027721;28;20029;-63
2023/04/21 10:24:57;;;;;;;12.07;10.80;;;;;;;19.29;48.63;101201.75;5028507;28;20060;-63
2023/04/21 10:27:49;;;;;;;13.38;11.98;;;;;;;19.26;50.74;101194.00;5028245;28;20314;-62
2023/04/21 10:30:18;;;;;;;13.75;12.35;;;;;;;19.20;49.26;101199.03;5019724;28;20046;-63
2023/04/21 10:32:44;;;;;;;13.57;12.18;;;;;;;19.12;48.78;101192.78;5026264;28;20052;-62
2023/04/21 10:35:21;;;;;;;13.57;11.50;;;;;;;19.27;49.71;101192.97;5030914;28;20382;-62
2023/04/21 10:37:48;;;;;;;12.15;10.80;;;;;;;19.44;48.23;101183.06;5029533;28;20037;-62
2023/04/21 10:40:29;;;;;;;11.63;10.43;;;;;;;19.68;48.54;101179.53;5038303;28;20025;-62
2023/04/21 10:42:54;;;;;;;12.45;11.10;;;;;;;19.65;47.18;101177.16;5022997;28;20041;-63
2023/04/21 10:45:19;;;;;;;12.35;11.05;;;;;;;19.54;44.33;101172.97;5027590;28;20037;-63
2023/04/21 10:47:48;;;;;;;12.35;11.05;;;;;;;19.47;46.81;101177.31;5026394;28;20044;-66
2023/04/21 10:50:19;;;;;;;13.00;11.77;;;;;;;19.63;47.68;101166.56;5027915;28;20033;-62
2023/04/21 10:53:06;;;;;;;13.15;11.65;;;;;;;19.68;46.59;101166.03;5027515;28;20041;-62
2023/04/21 10:55:32;;;;;;;12.85;11.55;;;;;;;19.63;46.64;101165.72;5017960;28;20087;-62
2023/04/21 10:58:01;;;;;;;12.95;10.98;;;;;;;19.58;47.06;101171.59;5017205;28;20050;-63
2023/04/21 11:00:27;;;;;;;12.68;11.38;;;;;;;19.24;47.16;101164.53;5026863;28;20025;-63
2023/04/21 11:02:54;;;;;;;12.48;11.23;;;;;;;19.00;47.45;101166.19;5021628;28;20040;-62
2023/04/21 11:05:26;;;;;;;12.02;10.73;;;;;;;18.95;50.16;101164.97;5018681;28;20368;-62